createdAt,value
2019-03-24T00:00:04.994Z,39.43
2019-03-24T00:01:05.088Z,39.42
2019-03-24T00:02:05.031Z,39.4
2019-03-24T00:03:05.070Z,39.42
2019-03-24T00:04:05.094Z,39.39
2019-03-24T00:05:05.098Z,39.44
2019-03-24T00:06:05.007Z,39.42
2019-03-24T00:07:04.819Z,39.42
2019-03-24T00:08:05.018Z,39.44
2019-03-24T00:09:05.020Z,39.43
2019-03-24T00:10:05.154Z,39.41
2019-03-24T00:11:05.171Z,39.44
2019-03-24T00:12:05.060Z,39.43
2019-03-24T00:13:04.943Z,39.43
2019-03-24T00:14:04.823Z,39.41
2019-03-24T00:15:04.892Z,39.44
2019-03-24T00:16:04.852Z,39.41
2019-03-24T00:17:05.019Z,39.44
2019-03-24T00:18:04.864Z,39.41
2019-03-24T00:19:04.993Z,39.44
2019-03-24T00:20:04.918Z,39.42
2019-03-24T00:21:04.933Z,39.43
2019-03-24T00:22:05.014Z,39.41
2019-03-24T00:23:04.927Z,39.44
2019-03-24T00:24:04.994Z,39.45
2019-03-24T00:25:05.005Z,39.43
2019-03-24T00:26:05.018Z,39.4
2019-03-24T00:27:05.072Z,39.43
2019-03-24T00:28:05.232Z,39.4
2019-03-24T00:29:04.987Z,39.42
2019-03-24T00:30:04.841Z,39.39
2019-03-24T00:31:04.982Z,39.4
2019-03-24T00:32:04.867Z,39.42
2019-03-24T00:33:04.886Z,39.4
2019-03-24T00:34:04.917Z,39.4
2019-03-24T00:35:04.984Z,39.41
2019-03-24T00:36:04.925Z,39.41
2019-03-24T00:37:04.947Z,39.4
2019-03-24T00:38:05.048Z,39.4
2019-03-24T00:39:04.991Z,39.4
2019-03-24T00:40:05.037Z,39.39
2019-03-24T00:41:04.992Z,39.4
2019-03-24T00:42:05.002Z,39.39
2019-03-24T00:43:05.120Z,39.41
2019-03-24T00:44:05.089Z,39.43
2019-03-24T00:45:05.033Z,39.41
2019-03-24T00:46:04.836Z,39.4
2019-03-24T00:47:04.857Z,39.41
2019-03-24T00:48:04.810Z,39.43
2019-03-24T00:49:04.846Z,39.41
2019-03-24T00:50:05.030Z,39.42
2019-03-24T00:51:04.850Z,39.4
2019-03-24T00:52:04.887Z,39.42
2019-03-24T00:53:04.842Z,39.4
2019-03-24T00:54:04.894Z,39.4
2019-03-24T00:55:05.112Z,39.4
2019-03-24T00:56:04.966Z,39.42
2019-03-24T00:57:05.049Z,39.42
2019-03-24T00:58:04.958Z,39.4
2019-03-24T00:59:04.987Z,39.4
2019-03-24T01:00:05.022Z,39.38
2019-03-24T01:01:04.972Z,39.4
2019-03-24T01:02:05.025Z,39.45
2019-03-24T01:03:04.935Z,39.4
2019-03-24T01:04:04.920Z,39.42
2019-03-24T01:05:04.935Z,39.42
2019-03-24T01:06:04.848Z,39.42
2019-03-24T01:07:04.879Z,39.41
2019-03-24T01:08:04.883Z,39.42
2019-03-24T01:09:04.963Z,39.38
2019-03-24T01:10:04.924Z,39.4
2019-03-24T01:11:04.960Z,39.38
2019-03-24T01:12:04.940Z,39.42
2019-03-24T01:13:05.038Z,39.39
2019-03-24T01:14:04.961Z,39.42
2019-03-24T01:15:04.982Z,39.4
2019-03-24T01:16:05.091Z,39.37
2019-03-24T01:17:05.001Z,39.4
2019-03-24T01:18:05.057Z,39.39
2019-03-24T01:19:05.128Z,39.39
2019-03-24T01:20:05.103Z,39.38
2019-03-24T01:21:04.795Z,39.36
2019-03-24T01:22:04.920Z,39.42
2019-03-24T01:23:04.811Z,39.41
2019-03-24T01:24:04.787Z,39.42
2019-03-24T01:25:04.834Z,39.39
2019-03-24T01:26:04.864Z,39.39
2019-03-24T01:27:04.978Z,39.38
2019-03-24T01:28:04.954Z,39.39
2019-03-24T01:29:05.039Z,39.38
2019-03-24T01:30:04.964Z,39.41
2019-03-24T01:31:04.892Z,39.4
2019-03-24T01:32:05.008Z,39.4
2019-03-24T01:33:05.108Z,39.39
2019-03-24T01:34:05.289Z,39.41
2019-03-24T01:35:04.965Z,39.38
2019-03-24T01:36:05.092Z,39.37
2019-03-24T01:37:05.025Z,39.38
2019-03-24T01:38:05.032Z,39.39
2019-03-24T01:39:04.865Z,39.38
2019-03-24T01:40:04.801Z,39.39
2019-03-24T01:41:04.836Z,39.4
2019-03-24T01:42:04.824Z,39.37
2019-03-24T01:43:04.910Z,39.4
2019-03-24T01:44:04.848Z,39.39
2019-03-24T01:45:04.874Z,39.38
2019-03-24T01:46:04.886Z,39.36
2019-03-24T01:47:04.900Z,39.38
2019-03-24T01:48:04.997Z,39.39
2019-03-24T01:49:05.035Z,39.39
2019-03-24T01:50:05.085Z,39.41
2019-03-24T01:51:04.995Z,39.42
2019-03-24T01:52:04.967Z,39.39
2019-03-24T01:53:05.091Z,39.38
2019-03-24T01:54:05.019Z,39.38
2019-03-24T01:55:05.061Z,39.4
2019-03-24T01:56:05.194Z,39.4
2019-03-24T01:57:04.774Z,39.39
2019-03-24T01:58:04.759Z,39.36
2019-03-24T01:59:04.798Z,39.4
2019-03-24T02:00:04.815Z,39.38
2019-03-24T02:01:04.874Z,39.38
2019-03-24T02:02:04.818Z,39.38
2019-03-24T02:03:04.842Z,39.38
2019-03-24T02:04:04.838Z,39.39
2019-03-24T02:05:04.883Z,39.38
2019-03-24T02:06:05.088Z,39.34
2019-03-24T02:07:04.941Z,39.37
2019-03-24T02:08:04.999Z,39.38
2019-03-24T02:09:04.930Z,39.37
2019-03-24T02:10:04.944Z,39.37
2019-03-24T02:11:04.949Z,39.37
2019-03-24T02:12:04.991Z,39.38
2019-03-24T02:13:04.985Z,39.33
2019-03-24T02:14:04.966Z,39.35
2019-03-24T02:15:04.988Z,39.36
2019-03-24T02:16:09.861Z,39.34
2019-03-24T02:17:04.889Z,39.37
2019-03-24T02:18:04.821Z,39.33
2019-03-24T02:19:04.857Z,39.34
2019-03-24T02:20:04.869Z,39.35
2019-03-24T02:21:04.864Z,39.33
2019-03-24T02:22:04.848Z,39.36
2019-03-24T02:23:04.947Z,39.36
2019-03-24T02:24:04.913Z,39.37
2019-03-24T02:25:04.897Z,39.35
2019-03-24T02:26:04.933Z,39.35
2019-03-24T02:27:05.054Z,39.33
2019-03-24T02:28:05.001Z,39.33
2019-03-24T02:29:04.957Z,39.34
2019-03-24T02:30:04.993Z,39.33
2019-03-24T02:31:05.020Z,39.35
2019-03-24T02:32:05.006Z,39.35
2019-03-24T02:33:05.048Z,39.33
2019-03-24T02:34:04.831Z,39.35
2019-03-24T02:35:04.771Z,39.34
2019-03-24T02:36:04.781Z,39.33
2019-03-24T02:37:04.875Z,39.34
2019-03-24T02:38:04.882Z,39.35
2019-03-24T02:39:04.868Z,39.36
2019-03-24T02:40:04.832Z,39.35
2019-03-24T02:41:04.904Z,39.34
2019-03-24T02:42:04.867Z,39.36
2019-03-24T02:43:04.889Z,39.32
2019-03-24T02:44:04.894Z,39.34
2019-03-24T02:45:04.996Z,39.35
2019-03-24T02:46:05.058Z,39.34
2019-03-24T02:47:05.118Z,39.33
2019-03-24T02:48:05.086Z,39.34
2019-03-24T02:49:04.942Z,39.33
2019-03-24T02:50:05.013Z,39.34
2019-03-24T02:51:05.022Z,39.31
2019-03-24T02:52:04.781Z,39.33
2019-03-24T02:53:04.743Z,39.31
2019-03-24T02:54:04.824Z,39.35
2019-03-24T02:55:04.842Z,39.34
2019-03-24T02:56:04.826Z,39.3
2019-03-24T02:57:04.829Z,39.35
2019-03-24T02:58:04.918Z,39.32
2019-03-24T02:59:04.890Z,39.32
2019-03-24T03:00:05.335Z,39.33
2019-03-24T03:01:05.212Z,39.32
2019-03-24T03:02:04.908Z,39.35
2019-03-24T03:03:04.931Z,39.29
2019-03-24T03:04:05.068Z,39.3
2019-03-24T03:05:04.739Z,39.32
2019-03-24T03:06:04.956Z,39.29
2019-03-24T03:07:05.100Z,39.32
2019-03-24T03:08:05.087Z,39.32
2019-03-24T03:09:05.056Z,39.32
2019-03-24T03:10:05.061Z,39.32
2019-03-24T03:11:04.723Z,39.32
2019-03-24T03:12:04.950Z,39.33
2019-03-24T03:13:04.774Z,39.31
2019-03-24T03:14:04.918Z,39.31
2019-03-24T03:15:04.795Z,39.31
2019-03-24T03:16:04.801Z,39.3
2019-03-24T03:17:04.831Z,39.31
2019-03-24T03:18:04.836Z,39.29
2019-03-24T03:19:04.959Z,39.32
2019-03-24T03:20:04.865Z,39.29
2019-03-24T03:21:04.970Z,39.3
2019-03-24T03:22:05.256Z,39.29
2019-03-24T03:23:04.932Z,39.3
2019-03-24T03:24:04.907Z,39.28
2019-03-24T03:25:04.954Z,39.26
2019-03-24T03:26:04.937Z,39.29
2019-03-24T03:27:04.983Z,39.3
2019-03-24T03:28:04.953Z,39.3
2019-03-24T03:29:04.889Z,39.29
2019-03-24T03:30:04.814Z,39.28
2019-03-24T03:31:04.868Z,39.27
2019-03-24T03:32:04.812Z,39.28
2019-03-24T03:33:04.902Z,39.28
2019-03-24T03:34:04.833Z,39.27
2019-03-24T03:35:05.006Z,39.28
2019-03-24T03:36:04.942Z,39.28
2019-03-24T03:37:04.934Z,39.29
2019-03-24T03:38:04.880Z,39.29
2019-03-24T03:39:04.908Z,39.3
2019-03-24T03:40:04.925Z,39.28
2019-03-24T03:41:05.013Z,39.29
2019-03-24T03:42:05.183Z,39.28
2019-03-24T03:43:05.014Z,39.27
2019-03-24T03:44:05.794Z,39.28
2019-03-24T03:45:05.000Z,39.31
2019-03-24T03:46:04.977Z,39.28
2019-03-24T03:47:05.065Z,39.26
2019-03-24T03:48:05.008Z,39.27
2019-03-24T03:49:04.747Z,39.27
2019-03-24T03:50:04.749Z,39.29
2019-03-24T03:51:04.777Z,39.29
2019-03-24T03:52:04.825Z,39.26
2019-03-24T03:53:04.787Z,39.25
2019-03-24T03:54:04.790Z,39.26
2019-03-24T03:55:05.024Z,39.27
2019-03-24T03:56:04.909Z,39.26
2019-03-24T03:57:04.809Z,39.25
2019-03-24T03:58:04.893Z,39.25
2019-03-24T03:59:04.869Z,39.25
2019-03-24T04:00:04.866Z,39.27
2019-03-24T04:01:04.931Z,39.26
2019-03-24T04:02:05.091Z,39.26
2019-03-24T04:03:05.030Z,39.25
2019-03-24T04:04:05.244Z,39.26
2019-03-24T04:05:05.263Z,39.24
2019-03-24T04:06:04.931Z,39.25
2019-03-24T04:07:05.066Z,39.23
2019-03-24T04:08:04.735Z,39.24
2019-03-24T04:09:04.767Z,39.24
2019-03-24T04:10:04.741Z,39.24
2019-03-24T04:11:04.781Z,39.25
2019-03-24T04:12:04.774Z,39.25
2019-03-24T04:13:04.787Z,39.25
2019-03-24T04:14:04.927Z,39.27
2019-03-24T04:15:04.860Z,39.25
2019-03-24T04:16:04.922Z,39.23
2019-03-24T04:17:08.064Z,39.25
2019-03-24T04:18:04.886Z,39.23
2019-03-24T04:19:04.919Z,39.26
2019-03-24T04:20:04.922Z,39.25
2019-03-24T04:21:05.004Z,39.21
2019-03-24T04:22:04.918Z,39.22
2019-03-24T04:23:05.102Z,39.22
2019-03-24T04:24:04.951Z,39.23
2019-03-24T04:25:04.941Z,39.22
2019-03-24T04:26:05.314Z,39.22
2019-03-24T04:27:04.983Z,39.22
2019-03-24T04:28:04.754Z,39.21
2019-03-24T04:29:04.710Z,39.19
2019-03-24T04:30:05.008Z,39.23
2019-03-24T04:31:04.842Z,39.2
2019-03-24T04:32:04.848Z,39.2
2019-03-24T04:33:04.735Z,39.19
2019-03-24T04:34:04.788Z,39.19
2019-03-24T04:35:04.825Z,39.21
2019-03-24T04:36:04.825Z,39.2
2019-03-24T04:37:04.888Z,39.16
2019-03-24T04:38:04.912Z,39.17
2019-03-24T04:39:04.982Z,39.16
2019-03-24T04:40:05.055Z,39.15
2019-03-24T04:41:05.011Z,39.16
2019-03-24T04:42:04.904Z,39.15
2019-03-24T04:43:04.917Z,39.15
2019-03-24T04:44:05.023Z,39.12
2019-03-24T04:45:04.959Z,39.15
2019-03-24T04:46:04.953Z,39.12
2019-03-24T04:47:04.777Z,39.12
2019-03-24T04:48:05.170Z,39.1
2019-03-24T04:49:04.740Z,39.08
2019-03-24T04:50:04.829Z,39.07
2019-03-24T04:51:04.850Z,39.08
2019-03-24T04:52:04.823Z,39.08
2019-03-24T04:53:04.905Z,39.11
2019-03-24T04:54:04.888Z,39.07
2019-03-24T04:55:04.860Z,39.11
2019-03-24T04:56:04.951Z,39.1
2019-03-24T04:57:04.942Z,39.1
2019-03-24T04:58:04.896Z,39.07
2019-03-24T04:59:04.902Z,39.06
2019-03-24T05:00:04.954Z,39
2019-03-24T05:01:04.903Z,39.01
2019-03-24T05:02:05.066Z,39.01
2019-03-24T05:03:04.993Z,38.99
2019-03-24T05:04:05.043Z,38.95
2019-03-24T05:05:04.683Z,38.94
2019-03-24T05:06:04.768Z,38.91
2019-03-24T05:07:04.767Z,38.95
2019-03-24T05:08:04.797Z,38.94
2019-03-24T05:09:04.922Z,38.93
2019-03-24T05:10:04.764Z,38.94
2019-03-24T05:11:04.804Z,38.89
2019-03-24T05:12:04.956Z,38.98
2019-03-24T05:13:04.784Z,38.89
2019-03-24T05:14:04.919Z,39
2019-03-24T05:15:04.833Z,38.92
2019-03-24T05:16:04.836Z,39
2019-03-24T05:17:05.006Z,38.99
2019-03-24T05:18:04.954Z,39.01
2019-03-24T05:19:04.876Z,38.93
2019-03-24T05:20:04.881Z,38.95
2019-03-24T05:21:04.911Z,38.99
2019-03-24T05:22:05.012Z,39.01
2019-03-24T05:23:04.757Z,38.99
2019-03-24T05:24:04.801Z,38.97
2019-03-24T05:25:04.754Z,39.02
2019-03-24T05:26:04.834Z,38.96
2019-03-24T05:27:04.820Z,39.02
2019-03-24T05:28:04.873Z,38.99
2019-03-24T05:29:04.867Z,39
2019-03-24T05:30:05.235Z,38.99
2019-03-24T05:31:05.343Z,38.97
2019-03-24T05:32:04.838Z,38.97
2019-03-24T05:33:04.866Z,39.03
2019-03-24T05:34:04.920Z,39.06
2019-03-24T05:35:05.913Z,39.03
2019-03-24T05:36:04.969Z,38.99
2019-03-24T05:37:04.909Z,39.02
2019-03-24T05:38:04.938Z,38.99
2019-03-24T05:39:05.031Z,38.95
2019-03-24T05:40:05.043Z,38.97
2019-03-24T05:41:04.735Z,38.94
2019-03-24T05:42:04.789Z,39
2019-03-24T05:43:04.692Z,38.99
2019-03-24T05:44:04.811Z,38.98
2019-03-24T05:45:04.855Z,38.96
2019-03-24T05:46:04.759Z,38.97
2019-03-24T05:47:04.753Z,38.91
2019-03-24T05:48:04.810Z,38.97
2019-03-24T05:49:04.819Z,38.92
2019-03-24T05:50:04.912Z,38.93
2019-03-24T05:51:04.852Z,38.91
2019-03-24T05:52:04.956Z,38.91
2019-03-24T05:53:04.865Z,38.9
2019-03-24T05:54:04.971Z,38.9
2019-03-24T05:55:05.038Z,38.91
2019-03-24T05:56:04.907Z,38.87
2019-03-24T05:57:04.911Z,38.9
2019-03-24T05:58:04.817Z,38.89
2019-03-24T05:59:04.814Z,38.88
2019-03-24T06:00:04.745Z,38.89
2019-03-24T06:01:04.841Z,38.86
2019-03-24T06:02:04.863Z,38.85
2019-03-24T06:03:04.778Z,38.81
2019-03-24T06:04:04.792Z,38.85
2019-03-24T06:05:04.807Z,38.83
2019-03-24T06:06:04.831Z,38.82
2019-03-24T06:07:04.848Z,38.81
2019-03-24T06:08:04.837Z,38.79
2019-03-24T06:09:04.862Z,38.8
2019-03-24T06:10:04.927Z,38.78
2019-03-24T06:11:04.873Z,38.85
2019-03-24T06:12:04.994Z,38.79
2019-03-24T06:13:04.998Z,38.76
2019-03-24T06:14:04.921Z,38.75
2019-03-24T06:15:04.954Z,38.77
2019-03-24T06:16:04.999Z,38.78
2019-03-24T06:17:04.800Z,38.76
2019-03-24T06:18:04.761Z,38.77
2019-03-24T06:19:04.720Z,38.76
2019-03-24T06:20:04.704Z,38.78
2019-03-24T06:21:04.848Z,38.78
2019-03-24T06:22:04.806Z,38.73
2019-03-24T06:23:04.814Z,38.74
2019-03-24T06:24:04.776Z,38.75
2019-03-24T06:25:04.802Z,38.75
2019-03-24T06:26:04.959Z,38.74
2019-03-24T06:27:04.878Z,38.75
2019-03-24T06:28:04.911Z,38.71
2019-03-24T06:29:04.849Z,38.74
2019-03-24T06:30:04.873Z,38.73
2019-03-24T06:31:04.958Z,38.71
2019-03-24T06:32:04.856Z,38.7
2019-03-24T06:33:05.074Z,38.69
2019-03-24T06:34:04.901Z,38.73
2019-03-24T06:35:05.199Z,38.72
2019-03-24T06:36:05.195Z,38.74
2019-03-24T06:37:04.750Z,38.71
2019-03-24T06:38:04.787Z,38.73
2019-03-24T06:39:04.783Z,38.7
2019-03-24T06:40:04.756Z,38.71
2019-03-24T06:41:04.819Z,38.71
2019-03-24T06:42:04.783Z,38.68
2019-03-24T06:43:04.812Z,38.7
2019-03-24T06:44:04.889Z,38.7
2019-03-24T06:45:04.848Z,38.68
2019-03-24T06:46:04.874Z,38.71
2019-03-24T06:47:04.867Z,38.69
2019-03-24T06:48:04.888Z,38.69
2019-03-24T06:49:04.942Z,38.71
2019-03-24T06:50:05.253Z,38.68
2019-03-24T06:51:04.930Z,38.68
2019-03-24T06:52:04.821Z,38.71
2019-03-24T06:53:04.678Z,38.7
2019-03-24T06:54:04.852Z,38.69
2019-03-24T06:55:04.689Z,38.7
2019-03-24T06:56:04.657Z,38.69
2019-03-24T06:57:04.812Z,38.69
2019-03-24T06:58:04.738Z,38.7
2019-03-24T06:59:04.765Z,38.71
2019-03-24T07:00:04.778Z,38.7
2019-03-24T07:01:04.792Z,38.7
2019-03-24T07:02:04.812Z,38.65
2019-03-24T07:03:05.057Z,38.7
2019-03-24T07:04:04.899Z,38.69
2019-03-24T07:05:04.830Z,38.69
2019-03-24T07:06:05.065Z,38.69
2019-03-24T07:07:04.834Z,38.69
2019-03-24T07:08:05.084Z,38.67
2019-03-24T07:09:05.067Z,38.71
2019-03-24T07:10:04.710Z,38.68
2019-03-24T07:11:13.619Z,38.68
2019-03-24T07:12:04.737Z,38.69
2019-03-24T07:13:04.724Z,38.67
2019-03-24T07:14:04.820Z,38.65
2019-03-24T07:15:04.779Z,38.67
2019-03-24T07:16:04.791Z,38.65
2019-03-24T07:17:04.789Z,38.67
2019-03-24T07:18:09.061Z,38.7
2019-03-24T07:19:04.799Z,38.68
2019-03-24T07:20:04.894Z,38.68
2019-03-24T07:21:04.845Z,38.65
2019-03-24T07:22:06.401Z,38.67
2019-03-24T07:23:04.868Z,38.65
2019-03-24T07:24:04.905Z,38.64
2019-03-24T07:25:04.913Z,38.65
2019-03-24T07:26:05.012Z,38.62
2019-03-24T07:27:04.651Z,38.66
2019-03-24T07:28:04.645Z,38.66
2019-03-24T07:29:04.693Z,38.66
2019-03-24T07:30:04.708Z,38.63
2019-03-24T07:31:04.718Z,38.63
2019-03-24T07:32:04.837Z,38.62
2019-03-24T07:33:04.745Z,38.66
2019-03-24T07:34:04.863Z,38.61
2019-03-24T07:35:04.789Z,38.64
2019-03-24T07:36:04.841Z,38.61
2019-03-24T07:37:04.813Z,38.63
2019-03-24T07:38:04.811Z,38.61
2019-03-24T07:39:04.844Z,38.66
2019-03-24T07:40:05.261Z,38.6
2019-03-24T07:41:04.921Z,38.58
2019-03-24T07:42:05.785Z,38.64
2019-03-24T07:43:04.869Z,38.58
2019-03-24T07:44:04.709Z,38.65
2019-03-24T07:45:04.703Z,38.64
2019-03-24T07:46:04.720Z,38.64
2019-03-24T07:47:04.744Z,38.63
2019-03-24T07:48:04.762Z,38.63
2019-03-24T07:49:04.735Z,38.64
2019-03-24T07:50:04.862Z,38.63
2019-03-24T07:51:04.824Z,38.61
2019-03-24T07:52:04.788Z,38.64
2019-03-24T07:53:04.808Z,38.6
2019-03-24T07:54:04.869Z,38.6
2019-03-24T07:55:04.807Z,38.63
2019-03-24T07:56:04.838Z,38.62
2019-03-24T07:57:04.885Z,38.66
2019-03-24T07:58:04.852Z,38.65
2019-03-24T07:59:04.859Z,38.61
2019-03-24T08:00:04.891Z,38.63
2019-03-24T08:01:04.783Z,38.61
2019-03-24T08:02:05.015Z,38.61
2019-03-24T08:03:04.724Z,38.67
2019-03-24T08:04:06.145Z,38.63
2019-03-24T08:05:04.714Z,38.6
2019-03-24T08:06:05.832Z,38.61
2019-03-24T08:07:04.837Z,38.59
2019-03-24T08:08:04.729Z,38.6
2019-03-24T08:09:04.876Z,38.63
2019-03-24T08:10:04.780Z,38.58
2019-03-24T08:11:05.074Z,38.6
2019-03-24T08:12:04.815Z,38.62
2019-03-24T08:13:04.815Z,38.59
2019-03-24T08:14:04.830Z,38.63
2019-03-24T08:15:04.843Z,38.62
2019-03-24T08:16:04.866Z,38.6
2019-03-24T08:17:04.882Z,38.62
2019-03-24T08:18:04.733Z,38.59
2019-03-24T08:19:04.754Z,38.61
2019-03-24T08:20:04.697Z,38.6
2019-03-24T08:21:04.698Z,38.61
2019-03-24T08:22:04.851Z,38.59
2019-03-24T08:23:05.150Z,38.59
2019-03-24T08:24:05.040Z,38.58
2019-03-24T08:25:04.766Z,38.57
2019-03-24T08:26:04.789Z,38.59
2019-03-24T08:27:04.966Z,38.58
2019-03-24T08:28:04.831Z,38.58
2019-03-24T08:29:04.846Z,38.6
2019-03-24T08:30:04.821Z,38.6
2019-03-24T08:31:04.849Z,38.59
2019-03-24T08:32:04.870Z,38.6
2019-03-24T08:33:04.879Z,38.57
2019-03-24T08:34:04.939Z,38.57
2019-03-24T08:35:05.003Z,38.56
2019-03-24T08:36:04.623Z,38.56
2019-03-24T08:37:04.642Z,38.58
2019-03-24T08:38:04.652Z,38.57
2019-03-24T08:39:04.659Z,38.55
2019-03-24T08:40:04.682Z,38.53
2019-03-24T08:41:04.768Z,38.56
2019-03-24T08:42:04.790Z,38.57
2019-03-24T08:43:04.745Z,38.57
2019-03-24T08:44:04.748Z,38.57
2019-03-24T08:45:05.296Z,38.58
2019-03-24T08:46:05.829Z,38.56
2019-03-24T08:47:04.955Z,38.56
2019-03-24T08:48:04.819Z,38.53
2019-03-24T08:49:04.909Z,38.55
2019-03-24T08:50:04.826Z,38.59
2019-03-24T08:51:04.843Z,38.56
2019-03-24T08:52:04.689Z,38.51
2019-03-24T08:53:04.781Z,38.52
2019-03-24T08:54:04.667Z,38.54
2019-03-24T08:55:04.703Z,38.53
2019-03-24T08:56:04.765Z,38.56
2019-03-24T08:57:04.857Z,38.54
2019-03-24T08:58:04.729Z,38.56
2019-03-24T08:59:04.749Z,38.55
2019-03-24T09:00:04.784Z,38.54
2019-03-24T09:01:04.782Z,38.5
2019-03-24T09:02:04.900Z,38.54
2019-03-24T09:03:04.901Z,38.55
2019-03-24T09:04:04.812Z,38.56
2019-03-24T09:05:04.838Z,38.53
2019-03-24T09:06:04.944Z,38.54
2019-03-24T09:07:05.162Z,38.52
2019-03-24T09:08:04.985Z,38.54
2019-03-24T09:09:04.725Z,38.51
2019-03-24T09:10:04.681Z,38.5
2019-03-24T09:11:04.688Z,38.5
2019-03-24T09:12:04.643Z,38.49
2019-03-24T09:13:04.738Z,38.54
2019-03-24T09:14:04.679Z,38.48
2019-03-24T09:15:04.684Z,38.53
2019-03-24T09:16:04.906Z,38.54
2019-03-24T09:17:04.839Z,38.48
2019-03-24T09:18:04.822Z,38.52
2019-03-24T09:19:04.767Z,38.53
2019-03-24T09:20:04.776Z,38.48
2019-03-24T09:21:04.792Z,38.5
2019-03-24T09:22:04.862Z,38.58
2019-03-24T09:23:04.859Z,38.73
2019-03-24T09:24:04.887Z,38.73
2019-03-24T09:25:04.849Z,38.77
2019-03-24T09:26:04.642Z,38.81
2019-03-24T09:27:04.677Z,38.83
2019-03-24T09:28:04.891Z,38.9
2019-03-24T09:29:05.024Z,38.81
2019-03-24T09:30:04.720Z,38.83
2019-03-24T09:31:04.699Z,38.86
2019-03-24T09:32:04.820Z,38.84
2019-03-24T09:33:04.816Z,38.89
2019-03-24T09:34:04.735Z,38.96
2019-03-24T09:35:04.739Z,38.91
2019-03-24T09:36:04.804Z,38.94
2019-03-24T09:37:04.783Z,38.96
2019-03-24T09:38:04.791Z,38.96
2019-03-24T09:39:04.907Z,38.99
2019-03-24T09:40:04.970Z,38.93
2019-03-24T09:41:04.944Z,38.96
2019-03-24T09:42:04.891Z,39.02
2019-03-24T09:43:04.964Z,38.95
2019-03-24T09:44:04.588Z,38.97
2019-03-24T09:45:04.622Z,39
2019-03-24T09:46:04.619Z,38.94
2019-03-24T09:47:04.624Z,38.99
2019-03-24T09:48:04.662Z,38.96
2019-03-24T09:49:04.761Z,39.01
2019-03-24T09:50:04.989Z,39.02
2019-03-24T09:51:04.731Z,39.03
2019-03-24T09:52:04.729Z,39.33
2019-03-24T09:53:04.772Z,39.16
2019-03-24T09:54:04.958Z,39.19
2019-03-24T09:55:04.827Z,39.15
2019-03-24T09:56:04.867Z,39.16
2019-03-24T09:57:04.853Z,39.27
2019-03-24T09:58:04.956Z,39.25
2019-03-24T09:59:04.904Z,39.27
2019-03-24T10:00:04.944Z,39.47
2019-03-24T10:01:04.636Z,39.21
2019-03-24T10:02:04.667Z,39.23
2019-03-24T10:03:04.680Z,39.32
2019-03-24T10:04:04.728Z,39.34
2019-03-24T10:05:04.689Z,39.2
2019-03-24T10:06:04.704Z,39.79
2019-03-24T10:07:04.781Z,39.6
2019-03-24T10:08:04.739Z,39.23
2019-03-24T10:09:04.896Z,39.3
2019-03-24T10:10:04.769Z,39.34
2019-03-24T10:11:05.635Z,39.55
2019-03-24T10:12:04.787Z,39.76
2019-03-24T10:13:04.917Z,39.91
2019-03-24T10:14:04.916Z,39.79
2019-03-24T10:15:04.829Z,39.93
2019-03-24T10:16:04.812Z,40.12
2019-03-24T10:17:04.950Z,39.75
2019-03-24T10:18:04.575Z,39.79
2019-03-24T10:19:14.477Z,39.85
2019-03-24T10:20:04.620Z,39.78
2019-03-24T10:21:04.778Z,39.9
2019-03-24T10:22:04.715Z,39.65
2019-03-24T10:23:04.654Z,39.71
2019-03-24T10:24:04.708Z,39.69
2019-03-24T10:25:04.671Z,39.69
2019-03-24T10:26:04.798Z,39.72
2019-03-24T10:27:04.718Z,39.93
2019-03-24T10:28:04.755Z,39.77
2019-03-24T10:29:04.758Z,39.72
2019-03-24T10:30:04.772Z,39.8
2019-03-24T10:31:04.759Z,39.63
2019-03-24T10:32:04.786Z,39.7
2019-03-24T10:33:04.963Z,39.77
2019-03-24T10:34:04.910Z,39.65
2019-03-24T10:35:04.627Z,39.55
2019-03-24T10:36:04.735Z,39.65
2019-03-24T10:37:04.632Z,39.77
2019-03-24T10:38:04.715Z,39.76
2019-03-24T10:39:04.724Z,39.3
2019-03-24T10:40:04.738Z,39.21
2019-03-24T10:41:04.815Z,39.45
2019-03-24T10:42:04.821Z,39.38
2019-03-24T10:43:04.717Z,39.5
2019-03-24T10:44:04.754Z,39.49
2019-03-24T10:45:04.884Z,39.51
2019-03-24T10:46:04.900Z,39.59
2019-03-24T10:47:04.846Z,39.46
2019-03-24T10:48:04.810Z,39.43
2019-03-24T10:49:04.812Z,39.38
2019-03-24T10:50:05.204Z,39.37
2019-03-24T10:51:04.855Z,39.36
2019-03-24T10:52:04.742Z,39.4
2019-03-24T10:53:06.106Z,39.4
2019-03-24T10:54:04.944Z,39.47
2019-03-24T10:55:04.721Z,39.38
2019-03-24T10:56:04.626Z,39.51
2019-03-24T10:57:05.546Z,39.36
2019-03-24T10:58:04.653Z,39.43
2019-03-24T10:59:04.648Z,39.38
2019-03-24T11:00:04.830Z,39.4
2019-03-24T11:01:04.697Z,39.39
2019-03-24T11:02:04.715Z,39.38
2019-03-24T11:03:04.770Z,39.37
2019-03-24T11:04:04.742Z,39.44
2019-03-24T11:05:05.148Z,39.35
2019-03-24T11:06:04.909Z,39.52
2019-03-24T11:07:04.753Z,39.43
2019-03-24T11:08:04.934Z,39.25
2019-03-24T11:09:04.823Z,39.15
2019-03-24T11:10:05.756Z,39.15
2019-03-24T11:11:04.610Z,39.06
2019-03-24T11:12:04.655Z,38.96
2019-03-24T11:13:04.731Z,38.99
2019-03-24T11:14:04.696Z,38.94
2019-03-24T11:15:05.095Z,38.92
2019-03-24T11:16:04.660Z,38.86
2019-03-24T11:17:04.758Z,38.88
2019-03-24T11:18:04.781Z,38.82
2019-03-24T11:19:04.721Z,38.85
2019-03-24T11:20:04.739Z,38.78
2019-03-24T11:21:04.725Z,38.8
2019-03-24T11:22:04.830Z,38.85
2019-03-24T11:23:04.858Z,38.8
2019-03-24T11:24:04.770Z,38.84
2019-03-24T11:25:04.806Z,38.8
2019-03-24T11:26:04.900Z,38.79
2019-03-24T11:27:04.839Z,38.79
2019-03-24T11:28:04.849Z,38.79
2019-03-24T11:29:04.711Z,38.77
2019-03-24T11:30:04.637Z,38.84
2019-03-24T11:31:04.612Z,38.83
2019-03-24T11:32:04.602Z,38.79
2019-03-24T11:33:04.608Z,38.78
2019-03-24T11:34:04.678Z,38.78
2019-03-24T11:35:04.746Z,38.79
2019-03-24T11:36:04.647Z,38.78
2019-03-24T11:37:04.862Z,38.76
2019-03-24T11:38:04.647Z,38.68
2019-03-24T11:39:04.700Z,38.75
2019-03-24T11:40:04.909Z,38.85
2019-03-24T11:41:04.756Z,38.87
2019-03-24T11:42:04.789Z,38.9
2019-03-24T11:43:04.754Z,38.95
2019-03-24T11:44:04.758Z,39.01
2019-03-24T11:45:04.929Z,38.85
2019-03-24T11:46:04.803Z,38.74
2019-03-24T11:47:04.881Z,38.73
2019-03-24T11:48:04.605Z,38.68
2019-03-24T11:49:04.621Z,38.66
2019-03-24T11:50:04.712Z,38.64
2019-03-24T11:51:04.628Z,38.66
2019-03-24T11:52:04.645Z,38.63
2019-03-24T11:53:04.758Z,38.6
2019-03-24T11:54:04.680Z,38.63
2019-03-24T11:55:04.690Z,38.56
2019-03-24T11:56:04.757Z,38.61
2019-03-24T11:57:04.713Z,38.58
2019-03-24T11:58:06.478Z,38.55
2019-03-24T11:59:04.712Z,38.58
2019-03-24T12:00:04.766Z,38.57
2019-03-24T12:01:04.850Z,38.58
2019-03-24T12:02:04.874Z,38.6
2019-03-24T12:03:04.797Z,38.59
2019-03-24T12:04:04.897Z,38.61
2019-03-24T12:05:04.801Z,38.63
2019-03-24T12:06:15.009Z,38.61
2019-03-24T12:07:04.580Z,38.56
2019-03-24T12:08:04.731Z,38.59
2019-03-24T12:09:04.596Z,38.63
2019-03-24T12:10:04.622Z,38.63
2019-03-24T12:11:04.726Z,38.64
2019-03-24T12:12:04.640Z,38.61
2019-03-24T12:13:04.634Z,38.59
2019-03-24T12:14:04.818Z,38.59
2019-03-24T12:15:05.628Z,38.6
2019-03-24T12:16:04.662Z,38.61
2019-03-24T12:17:04.668Z,38.6
2019-03-24T12:18:04.728Z,38.61
2019-03-24T12:19:04.748Z,38.6
2019-03-24T12:20:05.735Z,38.6
2019-03-24T12:21:05.025Z,38.6
2019-03-24T12:22:04.770Z,38.58
2019-03-24T12:23:04.820Z,38.56
2019-03-24T12:24:04.630Z,38.57
2019-03-24T12:25:04.595Z,38.56
2019-03-24T12:26:04.670Z,38.58
2019-03-24T12:27:04.622Z,38.58
2019-03-24T12:28:04.690Z,38.58
2019-03-24T12:29:04.703Z,38.58
2019-03-24T12:30:04.629Z,38.56
2019-03-24T12:31:04.651Z,38.54
2019-03-24T12:32:04.714Z,38.51
2019-03-24T12:33:04.741Z,38.56
2019-03-24T12:34:04.693Z,38.57
2019-03-24T12:35:04.766Z,38.51
2019-03-24T12:36:04.722Z,38.56
2019-03-24T12:37:04.751Z,38.54
2019-03-24T12:38:05.079Z,38.52
2019-03-24T12:39:04.761Z,38.52
2019-03-24T12:40:04.786Z,38.56
2019-03-24T12:41:04.774Z,38.53
2019-03-24T12:42:04.828Z,38.52
2019-03-24T12:43:04.582Z,38.57
2019-03-24T12:44:04.586Z,38.58
2019-03-24T12:45:04.553Z,38.59
2019-03-24T12:46:04.727Z,38.62
2019-03-24T12:47:04.680Z,38.65
2019-03-24T12:48:04.664Z,38.69
2019-03-24T12:49:04.646Z,38.66
2019-03-24T12:50:10.205Z,38.73
2019-03-24T12:51:04.675Z,38.66
2019-03-24T12:52:04.654Z,38.67
2019-03-24T12:53:04.726Z,38.69
2019-03-24T12:54:04.808Z,38.65
2019-03-24T12:55:04.804Z,38.73
2019-03-24T12:56:04.882Z,38.62